Oakland Park, Florida
Current Conditions -  °F | °C
As of 5:53 AM on Friday 24 Oct 2014 (Local Time) from KLEE Reporting Station
Clear Clear  
Wind Chill: 60°   Ceiling: Unl
Heat Index: 60°   Visibility: 10mi
Dew Point: 55°   Wind: 8mph
Humidity: 83%   Direction: 20°NNE
Pressure: 29.98"   Gusts: NA
Location:  28.8°N, 81.68°W
Report Text: KLEE 240953Z AUTO 02007KT 10SM CLR 16/13 A2998 RMK AO2 SLP152 T01560128
Loading
Personal Weather Stations






























Interactive Weather Map
Tropical Storm Tracking
New forecast layout! Learn more

10-Day Weather Forecast

Advertisements
Track Severe Weather on mobile